Tiempo atmosférico en la estación meteorológica de Alicante/Alacant, Alacant/Alicante (81 m.)

Fecha
DESCASC
Temp. máxima en grados centígrados (hora)
DESCASC
Temp. mínima en grados centígrados (hora)
DESCASC
Temp. media en grados centígrados
DESCASC
Racha de viento máxima en m/sg (hora)
DESCASC
Velocidad máxima media en intervalos de 10 minutos(hora)
DESCASC
Precipitaciones diarias en mm
DESCASC
Precipitaciones de 00:00 a 06:00 en mm
DESCASC
Precipitaciones de 06:00 a 12:00 en mm
DESCASC
Precipitaciones de 12:00 a 18:00 en mm
DESCASC
Precipitaciones de 18:00 a 24:00 en mm
DESCASC
23-11-2017 24.1 (15:10) 6 (05:10) 15.1 5.83 (15:00) 3.89 (16:00) 0 0 0 0 0
22-11-2017 20.6 (15:40) 5.7 (08:00) 13.2 3.89 (17:00) 2.5 (17:00) 0 0 0 0 0
21-11-2017 21 (14:10) 5.5 (08:10) 13.3 3.89 (15:00) 2.5 (15:00) 0 0 0 0 0
20-11-2017 20.9 (14:10) 6.2 (07:50) 13.5 4.72 (13:30) 2.78 (13:30) 0 0 0 0 0
19-11-2017 20.8 (15:10) 6.9 (00:00) 13.8 5 (15:30) 3.06 (15:30) 0 0 0 0 0
18-11-2017 21.2 (14:50) 6.6 (00:00) 13.9 4.72 (16:40) 2.78 (15:00) 0 0 0 0 0
17-11-2017 19.7 (14:20) 6.7 (00:00) 13.2 4.72 (15:20) 2.78 (15:20) 0 0 0 0 0
16-11-2017 19.5 (14:50) 5.6 (00:00) 12.5 4.44 (14:10) 2.5 (11:50) 0 0 0 0 0
15-11-2017 19.6 (14:40) 5.8 (00:00) 12.7 8.33 (13:30) 4.72 (15:10) 0 0 0 0 0
14-11-2017 18.1 (14:20) 6.8 (00:00) 12.5 5 (15:20) 3.33 (14:30) 0 0 0 0 0
13-11-2017 21.3 (14:30) 9.1 (00:00) 15.2 10.83 (14:50) 5.28 (10:10) 0 0 0 0 0
12-11-2017 21.8 (11:50) 10 (00:00) 15.9 6.11 (13:30) 3.33 (13:30) 0 0 0 0 0
11-11-2017 22 (14:10) 8.2 (00:00) 15.1 5.83 (14:40) 3.61 (14:40) 0 0 0 0 0
10-11-2017 19.5 (13:50) 6 (00:00) 12.8 6.67 (14:00) 3.61 (14:00) 0 0 0 0 0
09-11-2017 17.7 (15:20) 7.8 (00:00) 12.8 8.06 (11:40) 4.17 (11:50) 2.6 2.6 0 0 0
08-11-2017 21 (12:50) 9 (00:00) 15 6.39 (06:30) 3.61 (06:30) 0 0 0 0 0
07-11-2017 19.2 (15:00) 8.7 (00:00) 14 9.17 (04:30) 4.17 (04:30) 0 0 0 0 0
06-11-2017 20.7 (15:30) 10.4 (00:00) 15.6 10 (04:40) 5 (03:40) 0 0 0 0 0
05-11-2017 24.9 (14:20) 14.1 (00:00) 19.5 10.28 (15:00) 5 (10:10) 0 0 0 0 0
04-11-2017 25 (12:10) 15.1 (00:00) 20.1 8.61 (14:30) 3.89 (13:00) 0 0 0 0 0
03-11-2017 23.2 (13:20) 13 (00:00) 18.1 7.78 (23:20) 4.17 (23:20) 0 0 0 0 0
02-11-2017 22.8 (14:40) 13.4 (07:30) 18.1 5 (13:20) 2.78 (16:00) 0 0 0 0 0
01-11-2017 23.2 (12:00) 15.6 (00:00) 19.4 5.83 (11:30) 3.33 (13:00) 0 0 0 0 0
31-10-2017 23.6 (13:30) 13.6 (00:00) 18.6 7.78 (14:30) 4.17 (20:20) 0 0 0 0 0
30-10-2017 22.9 (12:50) 12.1 (00:00) 17.5 5 (15:50) 2.78 (15:50) 0 0 0 0 0
29-10-2017 24.8 (14:30) 14.8 (00:00) 19.8 6.67 (15:00) 3.89 (15:30) 0 0 0 0 0
28-10-2017 24 (13:00) 13.7 (00:00) 18.8 6.67 (15:00) 3.61 (17:20) 0 0 0 0 0
27-10-2017 28 (15:40) 10.8 (00:00) 19.4 3.89 (15:50) 2.5 (16:10) 0 0 0 0 0
26-10-2017 26.3 (15:30) 11.6 (00:00) 18.9 5 (16:00) 3.06 (16:00) 0 0 0 0 0
25-10-2017 27.3 (13:30) 12 (00:00) 19.6 6.11 (15:40) 3.89 (15:20) 0 0 0 0 0

Gráficas

Temp. máximas Temp. mínimas Temp. medias Precipitaciones Rachas de viento máximas Velocidades máximas media en intervalos de 10 minutos

Datos horarios

Fecha y hora oficial Temperatura (ºC) Velocidad del viento (km/h) Dirección del viento Racha (km/h) Dirección de racha Precipitación (mm) Presión (hPa) Tendencia (hPa) Humedad (%)
2017-11-23 23:00:00 12.5 5 Oeste 9 Oeste 0 1010.9 0.5 50
2017-11-23 22:00:00 11.9 4 Oeste 7 Noroeste 0 1010.9 1.2 55
2017-11-23 21:00:00 12.9 4 Oeste 5 Oeste 0 1010.7 1.5 63
2017-11-23 20:00:00 14.6 0 Calma 5 Norte 0 1010.4 1.7 70
2017-11-23 19:00:00 16.2 5 Nordeste 9 Nordeste 0 1009.7 1.4 67
2017-11-23 18:00:00 17.9 3 Oeste 7 Sudoeste 0 1009.2 0.9 61
2017-11-23 17:00:00 20.9 5 Sur 20 Sur 0 1008.7 0.3 43
2017-11-23 16:00:00 22.8 14 Sur 21 Sur 0 1008.3 -0.7 35
2017-11-23 15:00:00 24 12 Sur 21 Sur 0 1008.3 -1.2 26
2017-11-23 14:00:00 23 7 Sur 17 Sudeste 0 1008.4 -1.4 36
2017-11-23 13:00:00 21.6 7 Sudeste 13 Sudeste 0 1009 -0.3 36
2017-11-23 12:00:00 20.4 4 Sur 8 Sur 0 1009.5 0.8 35
2017-11-23 11:00:00 16.5 3 Sur 6 Sudoeste 0 1009.8 1.9 41
2017-11-23 10:00:00 12.7 0 Calma 9 Noroeste 0 1009.3 2.1 50
2017-11-23 09:00:00 8.9 4 Noroeste 10 Oeste 0 1008.7 2 57
2017-11-23 08:00:00 7.7 3 Oeste 10 Noroeste 0 1007.9 1.7 61
2017-11-23 07:00:00 6.6 4 Oeste 9 Oeste 0 1007.2 0.8 66
2017-11-23 06:00:00 6.4 3 Noroeste 10 Noroeste 0 1006.7 0.4 70
2017-11-23 05:00:00 6.1 4 Noroeste 7 Noroeste 0 1006.2 0.1 70
2017-11-23 04:00:00 6.6 4 Noroeste 8 Noroeste 0 1006.4 0.2 71
2017-11-23 03:00:00 7.4 3 Noroeste 10 Noroeste 0 1006.3 0 71
2017-11-23 02:00:00 8.4 4 Oeste 11 Oeste 0 1006.1 -0.1 67
2017-11-23 01:00:00 8.7 4 Noroeste 11 Noroeste 0 1006.2 0.1 73
2017-11-23 00:00:00 9.5 5 Oeste 10 Oeste 0 1006.3 0.3 71
2017-11-22 23:00:00 8.9 4 Noroeste 8 Noroeste 0 1006.2 0.1 76
2017-11-22 22:00:00 9.9 3 Noroeste 11 Oeste 0 1006.1 0.2 78
2017-11-22 21:00:00 10.9 3 Oeste 9 Oeste 0 1006 0.4 83
2017-11-22 20:00:00 12.2 3 Oeste 5 Oeste 0 1006.1 0.5 88
2017-11-22 19:00:00 13.7 3 Sudoeste 9 Sudoeste 0 1005.9 0.3 83
2017-11-22 18:00:00 16 5 Sudoeste 13 Sur 0 1005.6 0 76
2017-11-22 17:00:00 18 9 Sur 14 Sudoeste 0 1005.6 -0.6 63
2017-11-22 16:00:00 19.4 6 Sudeste 10 Sudeste 0 1005.6 -1.1 54
2017-11-22 15:00:00 20.2 6 Sudeste 14 Sur 0 1005.6 -2 50
2017-11-22 14:00:00 19.3 7 Sudeste 12 Sudeste 0 1006.2 -2.1 50
2017-11-22 13:00:00 20 7 Sur 12 Sur 0 1006.7 -1.4 51
2017-11-22 12:00:00 19.1 4 Sur 8 Sudeste 0 1007.6 -0.3 53
2017-11-22 11:00:00 15.7 5 Sur 8 Sur 0 1008.3 0.4 62
2017-11-22 10:00:00 11.9 3 Oeste 7 Oeste 0 1008.1 0.4 61
2017-11-22 09:00:00 7.9 5 Noroeste 8 Oeste 0 1007.9 0 72
2017-11-22 08:00:00 5.7 3 Oeste 6 Oeste 0 1007.9 -0.1 82
2017-11-22 07:00:00 5.9 4 Noroeste 6 Noroeste 0 1007.7 -0.9 84
2017-11-22 06:00:00 6.1 3 Noroeste 7 Noroeste 0 1007.9 -1.2 83
2017-11-22 05:00:00 6.5 4 Noroeste 7 Noroeste 0 1008 -1.3 81
2017-11-22 04:00:00 6.9 4 Noroeste 6 Noroeste 0 1008.6 -1 82
2017-11-22 03:00:00 7.6 4 Noroeste 6 Noroeste 0 1009.1 -0.8 82
2017-11-22 02:00:00 7.8 3 Oeste 7 Noroeste 0 1009.3 -0.9 82
2017-11-22 01:00:00 8.3 4 Noroeste 6 Noroeste 0 1009.6 -0.8 82
2017-11-22 00:00:00 9.2 4 Norte 9 Norte 0 1009.9 -0.6 83
2017-11-21 23:00:00 10.1 5 Norte 9 Norte 0 1010.2 -0.3 82
2017-11-21 22:00:00 10.3 3 Norte 5 Norte 0 1010.4 -0.1 86
2017-11-21 21:00:00 11.3 3 Noroeste 6 Norte 0 1010.5 0.2 83
2017-11-21 20:00:00 12.7 4 Norte 6 Norte 0 1010.5 0.2 83
2017-11-21 19:00:00 14.1 3 Norte 7 Nordeste 0 1010.5 0.1 83
2017-11-21 18:00:00 16.1 0 Calma 9 Sudeste 0 1010.3 -0.1 79
2017-11-21 17:00:00 17.9 5 Sudeste 12 Sudeste 0 1010.3 -0.6 71
2017-11-21 16:00:00 19.1 8 Sudeste 14 Sudeste 0 1010.4 -1.2 60
2017-11-21 15:00:00 20 9 Sudeste 14 Sudeste 0 1010.4 -1.8 42
2017-11-21 14:00:00 20.6 4 Sudeste 9 Sur 0 1010.9 -1.8 44
2017-11-21 13:00:00 19.6 6 Sur 12 Sur 0 1011.6 -0.8 50
2017-11-21 12:00:00 18.4 4 Sudeste 7 Este 0 1012.2 -0.1 50
2017-11-21 11:00:00 15.5 3 Sudeste 5 Este 0 1012.7 0.4 58
2017-11-21 10:00:00 11.6 2 Sudoeste 6 Noroeste 0 1012.4 0.3 64
2017-11-21 09:00:00 6.8 3 Oeste 5 Oeste 0 1012.3 0.3 79
2017-11-21 08:00:00 5.6 3 Noroeste 8 Noroeste 0 1012.3 0.3 83
2017-11-21 07:00:00 6.2 5 Noroeste 9 Noroeste 0 1012.1 -0.2 83
2017-11-21 06:00:00 6.6 3 Noroeste 7 Noroeste 0 1012 -0.6 84
2017-11-21 05:00:00 7 4 Noroeste 8 Oeste 0 1012 -0.6 84
2017-11-21 04:00:00 7.1 4 Oeste 6 Oeste 0 1012.3 -0.6 90
2017-11-21 03:00:00 8 2 Noroeste 5 Noroeste 0 1012.6 -0.5 91
2017-11-21 02:00:00 9.1 4 Noroeste 9 Oeste 0 1012.6 -0.7 89
2017-11-21 01:00:00 10.1 4 Oeste 10 Oeste 0 1012.9 -0.6 88
2017-11-21 00:00:00 11.5 3 Noroeste 9 Noroeste 0 1013.1 -0.4 94
2017-11-20 23:00:00 11.3 3 Noroeste 9 Noroeste 0 1013.3 0 92
2017-11-20 22:00:00 11.6 3 Oeste 9 Oeste 0 1013.5 0.6 87
2017-11-20 21:00:00 12.3 3 Oeste 7 Noroeste 0 1013.5 1 86
2017-11-20 20:00:00 13.1 3 Noroeste 5 Noroeste 0 1013.3 0.9 89
2017-11-20 19:00:00 14.4 3 Noroeste 7 Sur 0 1012.9 0.7 86
2017-11-20 18:00:00 16.2 3 Sur 14 Sur 0 1012.5 0.3 82
2017-11-20 17:00:00 17.8 7 Sur 16 Sudeste 0 1012.4 -0.5 72
2017-11-20 16:00:00 19.7 8 Sudeste 15 Sudeste 0 1012.2 -1.5 60
2017-11-20 15:00:00 20 9 Sudeste 17 Sudeste 0 1012.2 -2.2 56
2017-11-20 14:00:00 20.8 9 Sur 17 Sur 0 1012.9 -1.6 54
2017-11-20 13:00:00 20.2 9 Sur 15 Sur 0 1013.7 -0.6 53
2017-11-20 12:00:00 18.8 6 Sur 13 Sudoeste 0 1014.4 0.3 62
2017-11-20 11:00:00 16.5 4 Sudoeste 9 Sudoeste 0 1014.5 0.5 71
2017-11-20 10:00:00 12.9 3 Noroeste 6 Noroeste 0 1014.3 0.7 76
2017-11-20 09:00:00 8.1 3 Oeste 5 Noroeste 0 1014.1 1.1 88
2017-11-20 08:00:00 6.5 3 Noroeste 6 Noroeste 0 1014 1.4 92
2017-11-20 07:00:00 6.6 4 Noroeste 6 Noroeste 0 1013.6 0.9 93
2017-11-20 06:00:00 6.6 3 Noroeste 6 Noroeste 0 1013 0.3 93
2017-11-20 05:00:00 7.2 3 Oeste 6 Oeste 0 1012.6 -0.1 93
2017-11-20 04:00:00 7.3 3 Noroeste 4 Noroeste 0 1012.7 -0.2 92
2017-11-20 03:00:00 8.1 3 Oeste 6 Oeste 0 1012.7 -0.4 92
2017-11-20 02:00:00 8.6 2 Oeste 8 Oeste 0 1012.7 -0.4 91
2017-11-20 01:00:00 9.1 3 Oeste 6 Noroeste 0 1012.9 -0.1 89
2017-11-20 00:00:00 10.2 3 Noroeste 10 Oeste 0 1013.1 0.4 87
2017-11-19 23:00:00 11 3 Noroeste 8 Oeste 0 1013.1 0.7 88
2017-11-19 22:00:00 11.4 3 Oeste 6 Oeste 0 1013 1.1 86
2017-11-19 21:00:00 12.2 3 Oeste 8 Noroeste 0 1012.7 1.3 83
2017-11-19 20:00:00 13.1 2 Noroeste 5 Noroeste 0 1012.4 1.6 84
2017-11-19 19:00:00 14.8 3 Noroeste 12 Sur 0 1011.9 1.4 80
2017-11-19 18:00:00 16.5 7 Sur 13 Sur 0 1011.4 0.8 76
2017-11-19 17:00:00 18.3 6 Sur 16 Sur 0 1010.8 -0.5 65
2017-11-19 16:00:00 20.1 7 Sur 18 Sur 0 1010.5 -1.3 58
2017-11-19 15:00:00 20.7 8 Sur 17 Sur 0 1010.6 -2.1 57
2017-11-19 14:00:00 20.6 8 Sur 15 Sur 0 1011.3 -1.6 58
2017-11-19 13:00:00 20.1 7 Sur 14 Sudoeste 0 1011.8 -1.2 58
2017-11-19 12:00:00 19.1 5 Sudoeste 11 Sudoeste 0 1012.7 0 63
2017-11-19 11:00:00 16.7 4 Noroeste 8 Noroeste 0 1012.9 0.9 73
2017-11-19 10:00:00 12.9 3 Oeste 6 Noroeste 0 1013 1.5 78
2017-11-19 09:00:00 9.2 4 Noroeste 11 Noroeste 0 1012.7 1.5 86
2017-11-19 08:00:00 7.5 5 Noroeste 10 Noroeste 0 1012 0.9 90
2017-11-19 07:00:00 6.9 5 Noroeste 8 Noroeste 0 1011.5 0.4 92
2017-11-19 06:00:00 7 4 Noroeste 7 Noroeste 0 1011.2 -0.2 91
2017-11-19 05:00:00 7.5 4 Noroeste 8 Noroeste 0 1011.1 -0.2 91
2017-11-19 04:00:00 8 4 Noroeste 8 Noroeste 0 1011.1 -0.4 90
2017-11-19 03:00:00 7.9 4 Noroeste 7 Noroeste 0 1011.4 -0.2 92
2017-11-19 02:00:00 8.1 4 Noroeste 7 Noroeste 0 1011.3 -0.2 90
2017-11-19 01:00:00 8.6 3 Noroeste 6 Noroeste 0 1011.5 0.1 91
2017-11-19 00:00:00 9 4 Noroeste 7 Noroeste 0 1011.6 0.5 91
2017-11-18 23:00:00 9.7 3 Noroeste 6 Noroeste 0 1011.5 0.8 89
2017-11-18 22:00:00 10.4 4 Noroeste 5 Noroeste 0 1011.4 1 87
2017-11-18 21:00:00 11.5 4 Noroeste 7 Norte 0 1011.1 1.2 87
2017-11-18 20:00:00 12.6 4 Norte 6 Norte 0 1010.7 1 86
2017-11-18 19:00:00 14 3 Noroeste 8 Sur 0 1010.4 1 81
2017-11-18 18:00:00 16 6 Sur 16 Sur 0 1009.9 0.7 75
2017-11-18 17:00:00 17.6 6 Sur 17 Sur 0 1009.7 0.2 69
2017-11-18 16:00:00 19.6 8 Sur 17 Sur 0 1009.4 -0.4 63
2017-11-18 15:00:00 20.5 10 Sur 16 Sur 0 1009.2 -1.3 54
2017-11-18 14:00:00 21 9 Sur 17 Sur 0 1009.5 -1.2 46
2017-11-18 13:00:00 20.5 7 Sur 15 Sudeste 0 1009.8 -0.8 49
2017-11-18 12:00:00 18.9 10 Sur 15 Sur 0 1010.5 0 46
2017-11-18 11:00:00 16.3 6 Sudoeste 11 Sudoeste 0 1010.7 0.5 50
2017-11-18 10:00:00 12.4 3 Oeste 7 Oeste 0 1010.6 0.7 64
2017-11-18 09:00:00 9 3 Oeste 9 Noroeste 0 1010.5 0.9 71
2017-11-18 08:00:00 7.3 4 Noroeste 9 Oeste 0 1010.2 0.5 76
2017-11-18 07:00:00 7.3 5 Oeste 10 Oeste 0 1009.9 0 77
2017-11-18 06:00:00 6.7 4 Noroeste 7 Oeste 0 1009.6 -0.4 82
2017-11-18 05:00:00 7.2 3 Noroeste 9 Oeste 0 1009.7 -0.4 84
2017-11-18 04:00:00 7 3 Noroeste 6 Oeste 0 1009.9 -0.6 87
2017-11-18 03:00:00 7.5 3 Noroeste 5 Oeste 0 1010 -0.5 89
2017-11-18 02:00:00 8 3 Noroeste 6 Noroeste 0 1010.1 -0.3 90
2017-11-18 01:00:00 8.6 4 Noroeste 9 Noroeste 0 1010.5 0.1 90
2017-11-18 00:00:00 9.1 4 Oeste 6 Oeste 0 1010.5 0.4 89
2017-11-17 23:00:00 9.8 3 Oeste 5 Oeste 0 1010.4 0.3 88
2017-11-17 22:00:00 10.6 3 Oeste 5 Noroeste 0 1010.4 0.6 88
2017-11-17 21:00:00 11.4 4 Oeste 5 Oeste 0 1010.1 0.5 87
2017-11-17 20:00:00 12.5 3 Oeste 5 Oeste 0 1010.1 0.6 86
2017-11-17 19:00:00 13.9 3 Oeste 8 Sudoeste 0 1009.8 0.2 83
2017-11-17 18:00:00 15.5 5 Sur 13 Sur 0 1009.6 -0.2 77
2017-11-17 17:00:00 16.9 7 Sur 15 Sudeste 0 1009.5 -0.8 71
2017-11-17 16:00:00 18.7 6 Sur 17 Sudeste 0 1009.6 -1.1 62
2017-11-17 15:00:00 19.3 8 Sudeste 14 Sudoeste 0 1009.8 -1.6 58
2017-11-17 14:00:00 19 9 Sudeste 17 Sudeste 0 1010.3 -1.4 57
2017-11-17 13:00:00 19.1 9 Sur 15 Sur 0 1010.7 -0.7 52
2017-11-17 12:00:00 17.8 5 Sudoeste 12 Sur 0 1011.4 0.2 54
2017-11-17 11:00:00 15.8 3 Sur 7 Sur 0 1011.7 0.8 57
2017-11-17 10:00:00 12.3 3 Noroeste 6 Noroeste 0 1011.4 0.8 65
2017-11-17 09:00:00 8.4 3 Noroeste 9 Noroeste 0 1011.2 0.7 76
2017-11-17 08:00:00 6.7 4 Oeste 9 Noroeste 0 1010.9 0.3 81
2017-11-17 07:00:00 7.2 4 Noroeste 12 Noroeste 0 1010.6 -0.2 82
2017-11-17 06:00:00 6.7 4 Oeste 9 Noroeste 0 1010.5 -0.5 86
2017-11-17 05:00:00 7.2 4 Noroeste 9 Noroeste 0 1010.6 -0.4 86
2017-11-17 04:00:00 7.5 3 Noroeste 8 Noroeste 0 1010.8 -0.6 86
2017-11-17 03:00:00 7.7 3 Oeste 7 Oeste 0 1011 -0.6 89
2017-11-17 02:00:00 8.4 4 Noroeste 7 Noroeste 0 1011 -0.6 86
2017-11-17 01:00:00 9.2 4 Noroeste 9 Oeste 0 1011.4 -0.1 85
2017-11-17 00:00:00 9.7 4 Oeste 12 Oeste 0 1011.6 0.2 85
2017-11-16 23:00:00 10.1 5 Oeste 13 Oeste 0 1011.6 0.6 84
2017-11-16 22:00:00 10.3 4 Oeste 6 Oeste 0 1011.5 0.8 86
2017-11-16 21:00:00 10.9 3 Noroeste 5 Noroeste 0 1011.4 1 83
2017-11-16 20:00:00 12.1 3 Noroeste 4 Noroeste 0 1011 0.9 82
2017-11-16 19:00:00 13.5 3 Oeste 8 Sur 0 1010.7 0.7 78
2017-11-16 18:00:00 15.1 4 Sur 11 Sudeste 0 1010.4 0.5 74
2017-11-16 17:00:00 16.6 7 Sudeste 14 Sudeste 0 1010.1 0.2 68
2017-11-16 16:00:00 18.4 8 Sur 16 Sudeste 0 1010 -0.4 62
2017-11-16 15:00:00 19.3 8 Sur 16 Sudeste 0 1009.9 -1.1 55
2017-11-16 14:00:00 18.3 8 Sudeste 14 Sudeste 0 1009.9 -1.1 49
2017-11-16 13:00:00 17.8 7 Sudeste 14 Sudeste 0 1010.4 -0.4 44
2017-11-16 12:00:00 17.6 7 Sudeste 14 Sudeste 0 1011 0.5 42
2017-11-16 11:00:00 16.3 5 Sudeste 8 Nordeste 0 1011 1 49
2017-11-16 10:00:00 12 3 Norte 6 Noroeste 0 1010.8 1.1 57
2017-11-16 09:00:00 7.6 3 Noroeste 7 Noroeste 0 1010.5 1.3 68
2017-11-16 08:00:00 5.8 3 Noroeste 7 Noroeste 0 1010 1 68
2017-11-16 07:00:00 5.9 3 Noroeste 8 Noroeste 0 1009.7 0.6 68
2017-11-16 06:00:00 6 3 Noroeste 8 Noroeste 0 1009.2 -0.1 68
2017-11-16 05:00:00 5.7 3 Noroeste 5 Oeste 0 1009 -0.2 79
2017-11-16 04:00:00 6.7 3 Noroeste 5 Oeste 0 1009.1 -0.4 79
2017-11-16 03:00:00 7.1 3 Noroeste 6 Norte 0 1009.3 -0.4 80
2017-11-16 02:00:00 7.3 3 Noroeste 5 Noroeste 0 1009.2 -0.3 81
2017-11-16 01:00:00 7.8 3 Noroeste 8 Oeste 0 1009.5 -0.1 78
2017-11-16 00:00:00 7.9 3 Noroeste 6 Oeste 0 1009.7 0.4 82
2017-11-15 23:00:00 8.8 2 Oeste 6 Oeste 0 1009.5 0.5 80
2017-11-15 22:00:00 9.7 3 Oeste 5 Noroeste 0 1009.6 0.7 80
2017-11-15 21:00:00 11.1 3 Noroeste 6 Noroeste 0 1009.3 0.9 76
2017-11-15 20:00:00 12.2 4 Noroeste 6 Noroeste 0 1009 0.7 75
2017-11-15 19:00:00 13.8 3 Noroeste 15 Sur 0 1008.9 0.6 69
2017-11-15 18:00:00 15.8 8 Sur 19 Sur 0 1008.4 0.1 63
2017-11-15 17:00:00 17.1 12 Sur 21 Sur 0 1008.3 -0.6 61
2017-11-15 16:00:00 18.7 11 Sur 26 Sur 0 1008.3 -1.6 48
2017-11-15 15:00:00 19.3 15 Sudoeste 29 Sudoeste 0 1008.3 -2.8 43
2017-11-15 14:00:00 19.3 15 Sudoeste 30 Sudoeste 0 1008.9 -2.8 43
2017-11-15 13:00:00 18.6 13 Sudoeste 27 Sudoeste 0 1009.9 -1.8 47
2017-11-15 12:00:00 17.6 10 Sudoeste 22 Sudoeste 0 1011.1 -0.4 51
2017-11-15 11:00:00 16 8 Sudoeste 17 Sudoeste 0 1011.7 0.3 54
2017-11-15 10:00:00 12.5 4 Oeste 10 Oeste 0 1011.7 0.8 63
2017-11-15 09:00:00 8.1 4 Oeste 10 Noroeste 0 1011.5 0.7 75
2017-11-15 08:00:00 6.4 4 Noroeste 10 Oeste 0 1011.4 0.7 81
2017-11-15 07:00:00 5.9 4 Noroeste 8 Noroeste 0 1010.9 -0.1 84
2017-11-15 06:00:00 6.5 4 Noroeste 9 Noroeste 0 1010.8 -0.4 83
2017-11-15 05:00:00 6.3 3 Noroeste 9 Oeste 0 1010.7 -0.7 84
2017-11-15 04:00:00 6.5 4 Noroeste 9 Noroeste 0 1011 -0.5 83
2017-11-15 03:00:00 6.9 4 Noroeste 9 Noroeste 0 1011.2 -0.4 81
2017-11-15 02:00:00 7 4 Noroeste 6 Noroeste 0 1011.4 -0.2 80
2017-11-15 01:00:00 8.2 5 Noroeste 9 Norte 0 1011.5 0.1 74
2017-11-15 00:00:00 8.7 6 Norte 9 Nordeste 0 1011.6 0.5 72
2017-11-14 23:00:00 8.6 3 Noroeste 7 Norte 0 1011.6 1 72
2017-11-14 22:00:00 10 5 Norte 11 Norte 0 1011.4 1.5 67
2017-11-14 21:00:00 10.8 5 Norte 10 Nordeste 0 1011.1 2.1 64
2017-11-14 20:00:00 11.9 7 Nordeste 10 Nordeste 0 1010.6 2.1 62
2017-11-14 19:00:00 12.6 4 Este 7 Este 0 1009.9 1.7 62
2017-11-14 18:00:00 13.9 4 Sudeste 11 Este 0 1009 0.8 58
2017-11-14 17:00:00 15.5 5 Sudeste 16 Sur 0 1008.5 0 52
2017-11-14 16:00:00 17.2 8 Sur 18 Sudeste 0 1008.2 -0.8 46
2017-11-14 15:00:00 17.7 7 Sudeste 18 Sudeste 0 1008.2 -1.1 43
2017-11-14 14:00:00 17.8 8 Sudeste 18 Sudeste 0 1008.5 -0.9 40
2017-11-14 13:00:00 17.8 8 Sur 13 Sudeste 0 1009 -0.2 39
2017-11-14 12:00:00 16.9 7 Sur 13 Sudeste 0 1009.3 0.6 42
2017-11-14 11:00:00 15.2 4 Oeste 11 Oeste 0 1009.4 1.2 39
2017-11-14 10:00:00 12 6 Oeste 14 Oeste 0 1009.2 1.5 42
2017-11-14 09:00:00 8.9 6 Noroeste 15 Noroeste 0 1008.7 1.6 48
2017-11-14 08:00:00 7.2 5 Noroeste 14 Noroeste 0 1008.2 1.3 48
2017-11-14 07:00:00 7.1 6 Noroeste 12 Noroeste 0 1007.7 0.8 48
2017-11-14 06:00:00 7.1 6 Noroeste 15 Noroeste 0 1007.1 0 47
2017-11-14 05:00:00 7.5 5 Noroeste 13 Noroeste 0 1006.9 0.1 45
2017-11-14 04:00:00 7.8 5 Noroeste 13 Noroeste 0 1006.9 -0.4 43
2017-11-14 03:00:00 7.9 6 Noroeste 12 Noroeste 0 1007.1 -0.4 43
2017-11-14 02:00:00 8.2 5 Noroeste 12 Oeste 0 1006.8 -0.8 40
2017-11-14 01:00:00 8 4 Noroeste 9 Noroeste 0 1007.3 -0.3 40
2017-11-14 00:00:00 9.1 3 Noroeste 9 Noroeste 0 1007.5 0.1 36
2017-11-13 23:00:00 10.4 5 Noroeste 13 Noroeste 0 1007.6 0.6 33
2017-11-13 22:00:00 11.4 9 Noroeste 14 Norte 0 1007.6 1.1 32
2017-11-13 21:00:00 12.1 4 Noroeste 15 Norte 0 1007.4 1.8 32
2017-11-13 20:00:00 13.5 12 Nordeste 18 Nordeste 0 1007 2.4 30
2017-11-13 19:00:00 14.5 4 Norte 19 Norte 0 1006.5 2.3 30
2017-11-13 18:00:00 16.4 12 Norte 31 Norte 0 1005.6 2 27
2017-11-13 17:00:00 18.7 13 Norte 30 Norte 0 1004.6 0.3 23
2017-11-13 16:00:00 20.6 14 Norte 31 Noroeste 0 1004.2 -0.5 23
2017-11-13 15:00:00 20.8 16 Noroeste 39 Norte 0 1003.6 -1.3 24
2017-11-13 14:00:00 21.1 15 Norte 37 Nordeste 0 1004.3 -0.7 23
2017-11-13 13:00:00 20.9 14 Norte 33 Noroeste 0 1004.7 -0.1 30
2017-11-13 12:00:00 19.8 15 Noroeste 36 Norte 0 1004.9 0.1 34
2017-11-13 11:00:00 19.3 12 Noroeste 35 Noroeste 0 1005 1.2 35
2017-11-13 10:00:00 18.1 11 Noroeste 24 Norte 0 1004.8 1.7 40
2017-11-13 09:00:00 16.8 6 Noroeste 30 Noroeste 0 1004.8 1.7 43
2017-11-13 08:00:00 16 11 Noroeste 31 Noroeste 0 1003.8 1 42
2017-11-13 07:00:00 16.3 11 Nordeste 29 Noroeste 0 1003.1 -0.1 41
2017-11-13 06:00:00 14.8 5 Noroeste 34 Noroeste 0 1003.1 -0.6 46
2017-11-13 05:00:00 16.5 16 Noroeste 32 Noroeste 0 1002.8 -1.7 41
2017-11-13 04:00:00 15.9 15 Noroeste 32 Noroeste 0 1003.2 -1.6 43
2017-11-13 03:00:00 14.5 5 Oeste 16 Oeste 0 1003.7 -1.6 46
2017-11-13 02:00:00 13 4 Sudoeste 10 Norte 0 1004.5 -1.2 53
2017-11-13 01:00:00 16 7 Noroeste 21 Norte 0 1004.8 -1 41
2017-11-13 00:00:00 14.5 6 Oeste 14 Oeste 0 1005.3 -0.7 46
2017-11-12 23:00:00 16.5 9 Noroeste 22 Norte 0 1005.7 -0.7 41
2017-11-12 22:00:00 14.8 9 Noroeste 15 Noroeste 0 1005.8 -0.6 47
2017-11-12 21:00:00 13.6 5 Noroeste 10 Oeste 0 1006 -0.3 65
2017-11-12 20:00:00 13.8 3 Sudoeste 9 Oeste 0 1006.4 0 75
2017-11-12 19:00:00 15 3 Oeste 5 Sudoeste 0 1006.4 -0.4 74
2017-11-12 18:00:00 17.3 2 Sudeste 9 Nordeste 0 1006.3 -0.8 63
2017-11-12 17:00:00 19.4 5 Este 12 Sudeste 0 1006.4 -1.4 55
2017-11-12 16:00:00 20.8 4 Este 18 Sudeste 0 1006.8 -1.6 51
2017-11-12 15:00:00 20.6 9 Sudeste 19 Sudeste 0 1007.1 -2 54
2017-11-12 14:00:00 20.8 9 Sudeste 22 Sudeste 0 1007.8 -1.9 52
2017-11-12 13:00:00 21.4 10 Sur 18 Sudeste 0 1008.4 -1.6 48
2017-11-12 12:00:00 21.7 8 Sur 14 Sur 0 1009.1 -1 44
2017-11-12 11:00:00 20.3 3 Sudeste 8 Sudeste 0 1009.7 -0.2 46
2017-11-12 10:00:00 17.3 4 Oeste 11 Noroeste 0 1010 0.3 46
2017-11-12 09:00:00 13.3 5 Oeste 13 Noroeste 0 1010.1 0.4 58
2017-11-12 08:00:00 10.2 6 Noroeste 11 Noroeste 0 1009.9 0.3 65
2017-11-12 07:00:00 11 3 Noroeste 15 Noroeste 0 1009.7 -0.2 63
2017-11-12 06:00:00 10 3 Oeste 9 Noroeste 0 1009.7 -0.6 68
2017-11-12 05:00:00 11.6 5 Noroeste 13 Noroeste 0 1009.6 -0.9 63
2017-11-12 04:00:00 11.2 6 Noroeste 14 Noroeste 0 1009.9 -1.2 65
2017-11-12 03:00:00 11.1 3 Sudoeste 13 Noroeste 0 1010.3 -1.8 68
2017-11-12 02:00:00 10.6 4 Noroeste 7 Oeste 0 1010.5 -2.1 71
2017-11-12 01:00:00 11.6 4 Oeste 12 Oeste 0 1011.1 -2 67
2017-11-12 00:00:00 11.6 4 Oeste 11 Oeste 0 1012.1 -1.2 69
2017-11-11 23:00:00 11.5 5 Oeste 9 Oeste 0 1012.6 -1 69
2017-11-11 22:00:00 11.5 3 Noroeste 6 Norte 0 1013.1 -0.7 74
2017-11-11 21:00:00 12.2 3 Noroeste 5 Oeste 0 1013.3 -0.1 71
2017-11-11 20:00:00 13.3 3 Noroeste 5 Noroeste 0 1013.6 0.4 71
2017-11-11 19:00:00 14.9 2 Sudoeste 6 Sur 0 1013.8 0.9 67
2017-11-11 18:00:00 17.3 6 Sur 13 Sur 0 1013.4 0.5 58
2017-11-11 17:00:00 19 6 Sur 17 Sudeste 0 1013.2 -0.1 52
2017-11-11 16:00:00 20.3 10 Sudeste 19 Sudeste 0 1012.9 -1 46
2017-11-11 15:00:00 21.2 10 Sur 21 Sudeste 0 1012.9 -1.7 38
2017-11-11 14:00:00 21.8 9 Sur 19 Sur 0 1013.3 -1.5 38
2017-11-11 13:00:00 21.8 10 Sur 18 Sudeste 0 1013.9 -0.9 36
2017-11-11 12:00:00 21.1 6 Sur 14 Sur 0 1014.6 -0.2 39
2017-11-11 11:00:00 19.4 4 Norte 12 Nordeste 0 1014.8 0.4 40
2017-11-11 10:00:00 16.6 2 Sur 11 Noroeste 0 1014.8 0.5 49
2017-11-11 09:00:00 13.6 8 Noroeste 16 Noroeste 0 1014.8 0.7 56
2017-11-11 08:00:00 12.8 9 Noroeste 19 Noroeste 0 1014.4 -0.2 58
2017-11-11 07:00:00 8.5 7 Noroeste 10 Noroeste 0 1014.3 -0.4 75
2017-11-11 06:00:00 8.6 5 Noroeste 9 Norte 0 1014.1 -0.9 73
2017-11-11 05:00:00 8.9 4 Oeste 9 Noroeste 0 1014.6 -0.7 68
2017-11-11 04:00:00 8.7 4 Noroeste 11 Noroeste 0 1014.7 -1.3 67
2017-11-11 03:00:00 9.2 4 Noroeste 11 Noroeste 0 1015 -0.8 65
2017-11-11 02:00:00 8.5 5 Noroeste 10 Oeste 0 1015.3 -0.9 66
2017-11-11 01:00:00 8.3 3 Noroeste 6 Noroeste 0 1016 -0.2 65
2017-11-11 00:00:00 8.7 3 Norte 10 Nordeste 0 1015.8 -0.1 66
2017-11-10 23:00:00 9 3 Noroeste 7 Noroeste 0 1016.2 0.4 65
2017-11-10 22:00:00 9.6 3 Noroeste 8 Norte 0 1016.2 0.5 69
2017-11-10 21:00:00 10.5 2 Noroeste 6 Norte 0 1015.9 0.6 64
2017-11-10 20:00:00 11.7 3 Norte 6 Norte 0 1015.8 0.9 63
2017-11-10 19:00:00 12.8 5 Norte 6 Norte 0 1015.7 1.2 59
2017-11-10 18:00:00 15.1 0 Calma 11 Sur 0 1015.3 0.8 52
2017-11-10 17:00:00 16.7 8 Sudeste 15 Sudeste 0 1014.9 0.2 46
2017-11-10 16:00:00 18.1 9 Sudeste 22 Sur 0 1014.5 -0.8 43
2017-11-10 15:00:00 18.7 12 Sur 21 Sudeste 0 1014.5 -1.7 41
2017-11-10 14:00:00 18.8 13 Sudeste 24 Sudeste 0 1014.7 -1.2 38
2017-11-10 13:00:00 19.1 8 Sur 17 Sur 0 1015.3 -0.3 36
2017-11-10 12:00:00 17.6 8 Sudeste 14 Sudeste 0 1016.2 0.8 40
2017-11-10 11:00:00 17.2 3 Oeste 14 Norte 0 1015.9 1 36
2017-11-10 10:00:00 14.7 7 Noroeste 21 Norte 0 1015.6 1 43
2017-11-10 09:00:00 11.5 12 Norte 21 Norte 0 1015.4 1 52
2017-11-10 08:00:00 9.5 4 Noroeste 16 Noroeste 0 1014.9 0.7 61
2017-11-10 07:00:00 9.7 7 Noroeste 16 Noroeste 0 1014.6 0.7 59
2017-11-10 06:00:00 6 2 Oeste 4 Oeste 0 1014.4 0.3 72
2017-11-10 05:00:00 6.6 3 Oeste 6 Noroeste 0 1014.2 0 69
2017-11-10 04:00:00 7.4 4 Noroeste 7 Oeste 0 1013.9 -0.5 64
2017-11-10 03:00:00 8.9 4 Noroeste 11 Norte 0 1014.1 0.1 59
2017-11-10 02:00:00 9.9 6 Noroeste 14 Norte 0 1014.2 -0.2 53
2017-11-10 01:00:00 9.6 8 Noroeste 13 Norte 0 1014.4 0.5 55
2017-11-10 00:00:00 7.8 4 Noroeste 6 Nordeste 0 1014 0.3 69
2017-11-09 23:00:00 8.8 4 Noroeste 12 Norte 0 1014.4 0.8 61
2017-11-09 22:00:00 8.8 2 Oeste 10 Oeste 0 1013.9 0.5 64
2017-11-09 21:00:00 9.8 4 Oeste 9 Noroeste 0 1013.7 1.2 58
2017-11-09 20:00:00 10.8 4 Oeste 8 Oeste 0 1013.6 1.3 58
2017-11-09 19:00:00 11.8 4 Oeste 9 Sudoeste 0 1013.4 0.9 58
2017-11-09 18:00:00 13.9 5 Sur 12 Sur 0 1012.5 0 50
2017-11-09 17:00:00 15.7 5 Sudeste 13 Sudeste 0 1012.3 -0.5 44
2017-11-09 16:00:00 17.2 6 Sudeste 14 Sudeste 0 1012.5 -0.5 39
2017-11-09 15:00:00 17.1 6 Nordeste 12 Nordeste 0 1012.5 -0.8 39
2017-11-09 14:00:00 16 6 Sudeste 17 Sudeste 0 1012.8 -0.6 40
2017-11-09 13:00:00 16 8 Sudeste 23 Norte 0 1013 -0.2 42
2017-11-09 12:00:00 16.8 13 Norte 29 Norte 0 1013.3 0.5 34
2017-11-09 11:00:00 15.6 9 Norte 28 Norte 0 1013.4 1.3 37
2017-11-09 10:00:00 14.1 10 Norte 21 Noroeste 0 1013.2 1.7 39
2017-11-09 09:00:00 11.8 10 Noroeste 22 Noroeste 0 1012.8 1.5 47
2017-11-09 08:00:00 9.7 5 Noroeste 21 Noroeste 0 1012.1 0.5 56
2017-11-09 07:00:00 10.2 8 Noroeste 21 Noroeste 0 1011.5 0.5 54
2017-11-09 06:00:00 9.6 7 Norte 13 Norte 0 1011.3 0.5 64
2017-11-09 05:00:00 10.8 4 Norte 10 Norte 0 1011.6 1 86
2017-11-09 04:00:00 11.7 5 Oeste 12 Noroeste 0 1011 0.2 89
2017-11-09 03:00:00 12.8 4 Sudeste 20 Este 2.2 1010.8 -0.2 86
2017-11-09 02:00:00 13.9 10 Este 23 Este 0.4 1010.6 -0.4 77
2017-11-09 01:00:00 14.1 4 Nordeste 10 Nordeste 0 1010.8 0.1 67
2017-11-09 00:00:00 13.7 4 Norte 11 Norte 0 1011 0.4 69
2017-11-08 23:00:00 14.2 6 Norte 9 Nordeste 0 1011 0.3 67
2017-11-08 22:00:00 15 5 Nordeste 7 Norte 0 1010.7 0.4 66
2017-11-08 21:00:00 15.4 5 Nordeste 12 Norte 0 1010.6 0.9 65
2017-11-08 20:00:00 16 5 Nordeste 8 Norte 0 1010.7 1.1 63
2017-11-08 19:00:00 16.8 4 Nordeste 7 Este 0 1010.3 0.7 63
2017-11-08 18:00:00 17.3 6 Nordeste 12 Este 0 1009.7 0.1 61
2017-11-08 17:00:00 18.3 6 Sudeste 18 Sudeste 0 1009.6 -0.2 58
2017-11-08 16:00:00 19.5 8 Sudeste 21 Este 0 1009.6 -1 52
2017-11-08 15:00:00 19.8 10 Sudeste 20 Sudeste 0 1009.6 -1.6 48
2017-11-08 14:00:00 20.1 10 Sudeste 17 Sudeste 0 1009.8 -1.3 45
2017-11-08 13:00:00 20.8 9 Sudeste 16 Sudeste 0 1010.6 -0.4 42
2017-11-08 12:00:00 20.7 8 Sur 17 Sur 0 1011.2 0.4 43
2017-11-08 11:00:00 19.6 5 Sur 12 Sudeste 0 1011.1 0.9 47
2017-11-08 10:00:00 17.1 5 Nordeste 9 Norte 0 1011 1.2 40
2017-11-08 09:00:00 12.2 3 Noroeste 7 Noroeste 0 1010.8 1.1 54
2017-11-08 08:00:00 9.9 2 Oeste 8 Oeste 0 1010.2 0.7 59
2017-11-08 07:00:00 13 5 Noroeste 23 Noroeste 0 1009.8 0.8 48
2017-11-08 06:00:00 10.8 7 Noroeste 14 Oeste 0 1009.7 0.3 54
2017-11-08 05:00:00 10 5 Oeste 14 Noroeste 0 1009.5 0.2 56
2017-11-08 04:00:00 10.5 9 Noroeste 15 Noroeste 0 1009 -0.4 54
2017-11-08 03:00:00 9.3 0 Calma 10 Sudoeste 0 1009.4 0.1 63
2017-11-08 02:00:00 9.7 5 Oeste 13 Oeste 0 1009.3 -0.2 60
2017-11-08 01:00:00 9.7 5 Noroeste 11 Oeste 0 1009.4 -0.2 61
2017-11-08 00:00:00 9.8 7 Noroeste 13 Noroeste 0 1009.3 -0.2 61
2017-11-07 23:00:00 8.9 3 Noroeste 6 Noroeste 0 1009.5 0.1 66
2017-11-07 22:00:00 9.5 3 Noroeste 6 Oeste 0 1009.6 0.5 66
2017-11-07 21:00:00 10.4 3 Noroeste 6 Noroeste 0 1009.5 1 62
2017-11-07 20:00:00 11.5 3 Oeste 5 Oeste 0 1009.4 1.3 60
2017-11-07 19:00:00 12.8 3 Noroeste 7 Sudeste 0 1009.1 1.2 60
2017-11-07 18:00:00 14.8 2 Sudeste 12 Sudeste 0 1008.5 0.7 51
2017-11-07 17:00:00 16.5 8 Sudeste 14 Sur 0 1008.1 0.1 46
2017-11-07 16:00:00 18 8 Sudeste 18 Sudeste 0 1007.9 -0.3 38
2017-11-07 15:00:00 19.2 8 Sur 19 Sur 0 1007.8 -1.2 33
2017-11-07 14:00:00 19 9 Sur 18 Sudeste 0 1008 -1.2 35
2017-11-07 13:00:00 18.3 10 Sur 21 Sudoeste 0 1008.2 -0.8 38
2017-11-07 12:00:00 17.9 4 Sur 11 Sur 0 1009 0.2 33
2017-11-07 11:00:00 16.5 5 Sudoeste 13 Norte 0 1009.2 0.8 35
2017-11-07 10:00:00 14.7 9 Noroeste 14 Noroeste 0 1009 1.1 36
2017-11-07 09:00:00 11.9 5 Noroeste 20 Norte 0 1008.8 1.3 42
2017-11-07 08:00:00 8.9 6 Norte 13 Norte 0 1008.4 0.9 48
2017-11-07 07:00:00 9.7 6 Noroeste 15 Noroeste 0 1007.9 0.7 48
2017-11-07 06:00:00 10.6 6 Noroeste 24 Noroeste 0 1007.5 -0.5 45
2017-11-07 05:00:00 11.3 12 Noroeste 33 Norte 0 1007.5 -0.7 44
2017-11-07 04:00:00 11.8 14 Noroeste 29 Noroeste 0 1007.2 -1.1 42
2017-11-07 03:00:00 11.8 11 Noroeste 24 Norte 0 1008 -0.3 42
2017-11-07 02:00:00 12.6 12 Noroeste 24 Noroeste 0 1008.2 -0.2 40
2017-11-07 01:00:00 12.5 11 Noroeste 21 Noroeste 0 1008.3 0 41
2017-11-07 00:00:00 11.3 8 Noroeste 14 Noroeste 0 1008.3 0.4 45
2017-11-06 23:00:00 11.2 2 Noroeste 9 Norte 0 1008.4 0.5 50
2017-11-06 22:00:00 11.9 6 Norte 11 Norte 0 1008.3 0.5 48
2017-11-06 21:00:00 12.4 3 Noroeste 9 Noroeste 0 1007.9 0.4 48
2017-11-06 20:00:00 13.5 4 Norte 8 Noroeste 0 1007.9 0.1 44
2017-11-06 19:00:00 15.4 3 Oeste 13 Oeste 0 1007.8 -0.2 38
2017-11-06 18:00:00 17.4 6 Oeste 18 Oeste 0 1007.5 -0.9 34
2017-11-06 17:00:00 19 8 Noroeste 24 Noroeste 0 1007.8 -1.4 30
2017-11-06 16:00:00 20.5 9 Noroeste 26 Noroeste 0 1008 -1.9 27
2017-11-06 15:00:00 20.4 10 Noroeste 25 Noroeste 0 1008.4 -2.9 26
2017-11-06 14:00:00 20.2 14 Noroeste 33 Norte 0 1009.2 -2.5 28
2017-11-06 13:00:00 19.6 15 Noroeste 32 Noroeste 0 1009.9 -2 30
2017-11-06 12:00:00 18.5 15 Noroeste 31 Noroeste 0 1011.3 -0.3 33
2017-11-06 11:00:00 17.6 14 Noroeste 29 Norte 0 1011.7 0.5 35
2017-11-06 10:00:00 16.2 5 Oeste 28 Noroeste 0 1011.9 1.1 39
2017-11-06 09:00:00 14.7 11 Noroeste 27 Noroeste 0 1011.6 1 40
2017-11-06 08:00:00 12.7 7 Noroeste 21 Noroeste 0 1011.2 0.7 47
2017-11-06 07:00:00 12.3 6 Noroeste 18 Noroeste 0 1010.8 0.5 49
2017-11-06 06:00:00 13.6 10 Noroeste 27 Noroeste 0 1010.6 -0.3 44
2017-11-06 05:00:00 14 11 Noroeste 36 Noroeste 0 1010.5 -0.5 44
2017-11-06 04:00:00 14.7 17 Noroeste 34 Noroeste 0 1010.3 -0.9 42
2017-11-06 03:00:00 14.6 10 Noroeste 22 Noroeste 0 1010.9 -0.5 42
2017-11-06 02:00:00 15 8 Noroeste 22 Noroeste 0 1011 -0.2 41
2017-11-06 01:00:00 14.8 7 Oeste 15 Noroeste 0 1011.2 0.6 41
2017-11-06 00:00:00 15.3 7 Noroeste 14 Noroeste 0 1011.4 1.3 39
2017-11-05 23:00:00 16.7 8 Noroeste 27 Oeste 0 1011.2 1.6 37
2017-11-05 22:00:00 16.2 8 Noroeste 19 Norte 0 1010.6 1.8 40
2017-11-05 21:00:00 15.8 5 Noroeste 10 Norte 0 1010.1 2.5 44
2017-11-05 20:00:00 17.3 5 Noroeste 15 Norte 0 1009.6 2.6 56
2017-11-05 19:00:00 19 5 Noroeste 21 Noroeste 0 1008.8 2.2 46
2017-11-05 18:00:00 21.1 9 Noroeste 27 Noroeste 0 1007.6 1.4 31
2017-11-05 17:00:00 22.6 13 Noroeste 30 Noroeste 0 1007 0.5 31
2017-11-05 16:00:00 23.9 14 Noroeste 36 Noroeste 0 1006.6 -0.2 28
2017-11-05 15:00:00 24.3 17 Noroeste 37 Noroeste 0 1006.2 -1.4 28
2017-11-05 14:00:00 24.7 9 Noroeste 24 Noroeste 0 1006.5 -1.2 30
2017-11-05 13:00:00 23.6 8 Oeste 23 Noroeste 0 1006.8 -0.3 37
2017-11-05 12:00:00 22.4 10 Noroeste 31 Norte 0 1007.6 0.8 41
2017-11-05 11:00:00 20.6 18 Noroeste 36 Noroeste 0 1007.7 1.4 45
2017-11-05 10:00:00 19.9 12 Noroeste 31 Noroeste 0 1007.1 1.4 50
2017-11-05 09:00:00 17 6 Oeste 14 Oeste 0 1006.8 1.1 64
2017-11-05 08:00:00 14.2 4 Oeste 13 Noroeste 0 1006.3 1.1 76
2017-11-05 07:00:00 14.3 8 Noroeste 13 Noroeste 0 1005.7 0.5 74
2017-11-05 06:00:00 15.8 6 Noroeste 15 Norte 0 1005.7 0.8 67
2017-11-05 05:00:00 16.2 6 Oeste 18 Noroeste 0 1005.2 0.4 66
2017-11-05 04:00:00 16.2 7 Oeste 18 Oeste 0 1005.2 -0.1 67
2017-11-05 03:00:00 16 7 Oeste 22 Oeste 0 1004.9 -0.1 67
2017-11-05 02:00:00 16.5 12 Oeste 22 Oeste 0 1004.8 0.1 65
2017-11-05 01:00:00 15.6 5 Oeste 13 Oeste 0 1005.3 1.3 67
2017-11-05 00:00:00 15.1 4 Norte 8 Noroeste 0 1005 1.5 67
2017-11-04 23:00:00 16.2 4 Noroeste 13 Oeste 0 1004.7 1.7 63
2017-11-04 22:00:00 16 5 Oeste 11 Noroeste 0 1004 1.5 63
2017-11-04 21:00:00 16.8 4 Oeste 10 Sudoeste 0 1003.5 1.6 61
2017-11-04 20:00:00 18 7 Sudoeste 15 Sudoeste 0 1003 1.5 60
2017-11-04 19:00:00 18.1 4 Sudoeste 9 Sudoeste 0 1002.5 1.2 54
2017-11-04 18:00:00 20.7 6 Sudoeste 27 Sudoeste 0 1001.9 0.6 44
2017-11-04 17:00:00 22.3 14 Sudoeste 31 Sudoeste 0 1001.5 -0.3 42
2017-11-04 16:00:00 22 9 Oeste 24 Noroeste 0 1001.3 -1 43
2017-11-04 15:00:00 22.5 10 Oeste 31 Oeste 0 1001.3 -1.4 46
2017-11-04 14:00:00 22.7 12 Sudoeste 24 Sur 0 1001.8 -1.3 57
2017-11-04 13:00:00 24.5 14 Sur 23 Sudoeste 0 1002.3 -0.9 46
2017-11-04 12:00:00 24.7 8 Sur 17 Sur 0 1002.7 -0.6 41
2017-11-04 11:00:00 23.1 6 Sudoeste 11 Sudoeste 0 1003.1 0.3 49
2017-11-04 10:00:00 20 5 Oeste 12 Oeste 0 1003.2 0.8 64
2017-11-04 09:00:00 16.1 4 Oeste 14 Noroeste 0 1003.3 1.3 85
2017-11-04 08:00:00 15.8 6 Noroeste 14 Noroeste 0 1002.8 0.9 86
2017-11-04 07:00:00 16.5 6 Oeste 13 Sur 0 1002.4 0.1 88
2017-11-04 06:00:00 16.8 8 Sur 12 Sur 0 1002 -1.1 87
2017-11-04 05:00:00 16.7 3 Sur 12 Norte 0 1001.9 -1.7 87
2017-11-04 04:00:00 17.1 4 Norte 15 Norte 0 1002.3 -1.2 86
2017-11-04 03:00:00 17.4 2 Este 11 Oeste 0 1003.1 -0.3 85
2017-11-04 02:00:00 17.3 5 Oeste 10 Noroeste 0 1003.6 0.1 84
2017-11-04 01:00:00 17.6 3 Oeste 17 Sur 0 1003.5 -0.2 85
2017-11-04 00:00:00 17.9 10 Sudoeste 28 Norte 0 1003.4 -0.2 84
2017-11-03 23:00:00 17.1 4 Noroeste 8 Noroeste 0 1003.5 -0.2 87
2017-11-03 22:00:00 17.5 3 Oeste 9 Oeste 0 1003.7 0 86
2017-11-03 21:00:00 17.9 3 Noroeste 6 Noroeste 0 1003.6 0.1 86
2017-11-03 20:00:00 18.4 3 Noroeste 6 Noroeste 0 1003.7 0.3 85
2017-11-03 19:00:00 19.2 4 Norte 7 Nordeste 0 1003.7 0.2 84
2017-11-03 18:00:00 19.5 3 Este 11 Nordeste 0 1003.5 -0.1 81
2017-11-03 17:00:00 20.3 6 Sudeste 13 Este 0 1003.4 -0.8 76
2017-11-03 16:00:00 20.8 7 Sudeste 14 Sudeste 0 1003.5 -1.5 71
2017-11-03 15:00:00 22.1 10 Sudeste 16 Sudeste 0 1003.6 -2 65
2017-11-03 14:00:00 22 9 Sudeste 18 Sudeste 0 1004.2 -1.6 65
2017-11-03 13:00:00 23.1 7 Sur 14 Sur 0 1005 -1.4 61
2017-11-03 12:00:00 21.1 3 Este 9 Noroeste 0 1005.6 -0.3 68
2017-11-03 11:00:00 19.9 5 Noroeste 10 Oeste 0 1005.8 0.5 72
2017-11-03 10:00:00 18.3 6 Noroeste 10 Oeste 0 1006.4 0.9 78
2017-11-03 09:00:00 16 3 Noroeste 8 Noroeste 0 1005.9 0.1 83
2017-11-03 08:00:00 14 5 Norte 8 Norte 0 1005.3 -0.6 87
2017-11-03 07:00:00 13.6 5 Noroeste 9 Noroeste 0 1005.5 -0.8 88
2017-11-03 06:00:00 13.2 3 Noroeste 9 Norte 0 1005.8 -0.5 88
2017-11-03 05:00:00 13.6 4 Noroeste 12 Noroeste 0 1005.9 -1.2 89
2017-11-03 04:00:00 13.3 4 Oeste 9 Oeste 0 1006.3 -1.1 89
2017-11-03 03:00:00 13.8 6 Norte 8 Norte 0 1006.3 -1.7 91
2017-11-03 02:00:00 13.7 3 Noroeste 8 Norte 0 1007.1 -1.1 89
2017-11-03 01:00:00 14.2 4 Norte 7 Norte 0 1007.4 -1 90
2017-11-03 00:00:00 14.3 4 Noroeste 5 Noroeste 0 1008 -0.2 88
2017-11-02 23:00:00 15.2 4 Noroeste 8 Norte 0 1008.2 0 86
2017-11-02 22:00:00 16.2 3 Norte 10 Norte 0 1008.4 0.4 85
2017-11-02 21:00:00 16.6 4 Norte 9 Norte 0 1008.2 0.3 84
2017-11-02 20:00:00 17.3 5 Norte 7 Norte 0 1008.2 0.1 82
2017-11-02 19:00:00 18.5 4 Este 8 Este 0 1008 -0.1 78
2017-11-02 18:00:00 19.8 6 Este 13 Nordeste 0 1007.9 -0.5 74
2017-11-02 17:00:00 20.7 8 Nordeste 16 Sudeste 0 1008.1 -1 70
2017-11-02 16:00:00 21.7 10 Nordeste 18 Nordeste 0 1008.1 -1.9 65
2017-11-02 15:00:00 22 9 Este 17 Nordeste 0 1008.4 -2.2 63
2017-11-02 14:00:00 22.3 6 Este 18 Este 0 1009.1 -1.7 61
2017-11-02 13:00:00 22.4 8 Nordeste 18 Nordeste 0 1010 -0.9 62
2017-11-02 12:00:00 22.1 6 Este 16 Este 0 1010.6 -0.4 62
2017-11-02 11:00:00 21.9 6 Sudeste 13 Sudeste 0 1010.8 0.1 63
2017-11-02 10:00:00 20 5 Nordeste 11 Nordeste 0 1010.9 0.4 68
2017-11-02 09:00:00 15.8 3 Norte 5 Noroeste 0 1011 0.5 86
2017-11-02 08:00:00 13.7 4 Noroeste 8 Nordeste 0 1010.7 0 93
2017-11-02 07:00:00 13.6 4 Norte 8 Norte 0 1010.5 -0.4 92
2017-11-02 06:00:00 13.9 5 Norte 9 Norte 0 1010.5 -0.6 92
2017-11-02 05:00:00 13.8 6 Norte 8 Norte 0 1010.7 -0.9 91
2017-11-02 04:00:00 14.2 4 Noroeste 10 Norte 0 1010.9 -1.1 88
2017-11-02 03:00:00 14.7 7 Nordeste 11 Norte 0 1011.1 -1.1 87
2017-11-02 02:00:00 14.8 4 Norte 7 Norte 0 1011.6 -0.9 87
2017-11-02 01:00:00 15.4 5 Norte 9 Norte 0 1012 -0.5 84
2017-11-02 00:00:00 16.1 5 Norte 9 Nordeste 0 1012.2 -0.1 81
2017-11-01 23:00:00 16.7 5 Norte 11 Norte 0 1012.5 0.3 80
2017-11-01 22:00:00 17.3 4 Norte 11 Norte 0 1012.5 0.6 79
2017-11-01 21:00:00 17.4 5 Norte 9 Norte 0 1012.3 0.7 79
2017-11-01 20:00:00 18.1 4 Norte 8 Norte 0 1012.2 0.8 78
2017-11-01 19:00:00 18.9 4 Nordeste 10 Este 0 1011.9 0.4 77
2017-11-01 18:00:00 19.7 5 Este 12 Sudeste 0 1011.6 -0.1 73
2017-11-01 17:00:00 20.8 8 Sudeste 15 Sudeste 0 1011.4 -0.8 68
2017-11-01 16:00:00 21.3 7 Sudeste 16 Sudeste 0 1011.5 -1.4 69
2017-11-01 15:00:00 21.6 8 Sudeste 19 Sur 0 1011.7 -1.7 65
2017-11-01 14:00:00 22 9 Sudeste 18 Sudeste 0 1012.2 -1.4 64
2017-11-01 13:00:00 21.4 12 Sudeste 20 Sudeste 0 1012.9 -0.6 65
2017-11-01 12:00:00 23.2 9 Sudeste 21 Este 0 1013.4 0.1 60
2017-11-01 11:00:00 21.1 9 Este 17 Este 0 1013.6 0.9 70
2017-11-01 10:00:00 20.2 6 Nordeste 13 Nordeste 0 1013.5 1.2 71
2017-11-01 09:00:00 17.7 6 Nordeste 9 Nordeste 0 1013.3 1.4 77
2017-11-01 08:00:00 16.9 3 Norte 9 Norte 0 1012.7 0.7 80
2017-11-01 07:00:00 16.9 4 Nordeste 9 Nordeste 0 1012.3 0.1 79
2017-11-01 06:00:00 16.9 5 Norte 8 Norte 0 1011.9 -0.4 79
2017-11-01 05:00:00 16.7 5 Norte 9 Norte 0 1012 -0.5 79
2017-11-01 04:00:00 16.9 5 Norte 9 Norte 0 1012.2 -0.5 78
2017-11-01 03:00:00 16.4 5 Norte 9 Nordeste 0 1012.3 -0.5 79
2017-11-01 02:00:00 16.1 5 Norte 9 Norte 0 1012.5 -0.3 81
2017-11-01 01:00:00 15.7 5 Norte 8 Norte 0 1012.7 -0.1 83
2017-11-01 00:00:00 15.8 4 Norte 11 Nordeste 0 1012.8 0.4 83
2017-10-31 23:00:00 16.3 4 Norte 6 Norte 0 1012.8 0.9 86
2017-10-31 22:00:00 17.3 4 Norte 15 Este 0 1012.8 1.2 82
2017-10-31 21:00:00 18.1 7 Nordeste 27 Este 0 1012.4 1.4 84
2017-10-31 20:00:00 18.9 13 Nordeste 26 Nordeste 0 1011.9 1.2 83
2017-10-31 19:00:00 19.5 12 Este 28 Este 0 1011.6 1.2 80
2017-10-31 18:00:00 19.7 10 Este 26 Nordeste 0 1011 0.6 77
2017-10-31 17:00:00 20.5 13 Este 26 Este 0 1010.7 0.1 74
2017-10-31 16:00:00 21.6 13 Este 26 Este 0 1010.4 -0.4 69
2017-10-31 15:00:00 23 13 Este 28 Sudeste 0 1010.4 -0.8 59
2017-10-31 14:00:00 22.7 13 Sudeste 25 Sudeste 0 1010.6 -1 57
2017-10-31 13:00:00 23.4 10 Sudeste 18 Sudeste 0 1010.8 -0.7 58
2017-10-31 12:00:00 22.5 6 Este 16 Sudeste 0 1011.2 0.3 60
2017-10-31 11:00:00 20.6 6 Nordeste 17 Este 0 1011.6 1.6 68
2017-10-31 10:00:00 19.2 2 Noroeste 5 Oeste 0 1011.5 2 67
2017-10-31 09:00:00 16.7 2 Noroeste 6 Oeste 0 1010.9 1.9 79
2017-10-31 08:00:00 14.6 4 Norte 8 Norte 0 1010 1.1 85
2017-10-31 07:00:00 14.4 4 Norte 6 Norte 0 1009.5 0.8 88
2017-10-31 06:00:00 13.7 4 Norte 7 Norte 0 1009 0.2 92
2017-10-31 05:00:00 14 4 Norte 9 Norte 0 1008.9 0.1 91
2017-10-31 04:00:00 13.8 3 Noroeste 5 Noroeste 0 1008.7 -0.4 92
2017-10-31 03:00:00 14.2 3 Noroeste 5 Norte 0 1008.8 -0.4 91
2017-10-31 02:00:00 14.5 3 Noroeste 5 Noroeste 0 1008.8 -0.2 90
2017-10-31 01:00:00 15.1 3 Noroeste 7 Norte 0 1009.1 0.3 90
2017-10-31 00:00:00 15.8 6 Norte 9 Norte 0 1009.2 0.9 89
2017-10-30 23:00:00 16.1 4 Norte 8 Norte 0 1009 1.2 90
2017-10-30 22:00:00 16.7 4 Norte 7 Norte 0 1008.8 1.5 88
2017-10-30 21:00:00 17.4 4 Norte 7 Noroeste 0 1008.3 1.7 86
2017-10-30 20:00:00 18.6 4 Nordeste 7 Nordeste 0 1007.8 1.7 82
2017-10-30 19:00:00 19.1 4 Este 9 Nordeste 0 1007.3 1.3 81
2017-10-30 18:00:00 19.7 4 Sudeste 13 Sudeste 0 1006.6 0.4 78
2017-10-30 17:00:00 20.8 8 Sudeste 16 Sudeste 0 1006.1 -0.4 73
2017-10-30 16:00:00 21.8 8 Sudeste 18 Sudeste 0 1006 -0.9 70
2017-10-30 15:00:00 22.6 8 Sudeste 18 Sudeste 0 1006.2 -1.3 65
2017-10-30 14:00:00 21.5 9 Sudeste 18 Sudeste 0 1006.5 -1.2 67
2017-10-30 13:00:00 22.4 7 Sudeste 17 Este 0 1006.9 -0.9 66
2017-10-30 12:00:00 22 8 Sudeste 16 Este 0 1007.5 0.1 66
2017-10-30 11:00:00 22 6 Sudeste 12 Sur 0 1007.7 0.8 61
2017-10-30 10:00:00 20 5 Nordeste 11 Nordeste 0 1007.8 1.3 71
2017-10-30 09:00:00 16.4 8 Nordeste 12 Nordeste 0 1007.4 1.1 84
2017-10-30 08:00:00 12.9 5 Noroeste 6 Noroeste 0 1006.9 0.6 90
2017-10-30 07:00:00 12.2 4 Noroeste 5 Noroeste 0 1006.5 0.1 91
2017-10-30 06:00:00 12.5 3 Noroeste 7 Norte 0 1006.3 -0.4 90
2017-10-30 05:00:00 12.8 2 Noroeste 6 Noroeste 0 1006.3 -0.7 88
2017-10-30 04:00:00 13.1 4 Noroeste 7 Oeste 0 1006.4 -1 88
2017-10-30 03:00:00 13.7 2 Oeste 10 Oeste 0 1006.7 -1.1 85
2017-10-30 02:00:00 14.3 3 Oeste 10 Oeste 0 1007 -1.3 85
2017-10-30 01:00:00 14.3 4 Noroeste 9 Oeste 0 1007.4 -1.4 84
2017-10-30 00:00:00 14.8 4 Noroeste 6 Noroeste 0 1007.8 -1.2 83
2017-10-29 23:00:00 15.2 4 Oeste 5 Oeste 0 1008.3 -0.8 82
2017-10-29 22:00:00 16.1 3 Noroeste 7 Norte 0 1008.8 -0.3 80
2017-10-29 21:00:00 17.1 5 Norte 7 Norte 0 1009 0.2 79
2017-10-29 20:00:00 17.9 3 Noroeste 3 Noroeste 0 1009.1 0.6 77
2017-10-29 19:00:00 19.2 3 Sudoeste 12 Sur 0 1009.1 0.1 73
2017-10-29 18:00:00 20.6 8 Sur 18 Sur 0 1008.8 -0.6 67
2017-10-29 17:00:00 22 10 Sur 23 Sur 0 1008.5 -1.4 60
2017-10-29 16:00:00 23.2 13 Sur 23 Sur 0 1009 -1.9 56
2017-10-29 15:00:00 23.7 10 Sur 24 Sur 0 1009.4 -2.6 59
2017-10-29 14:00:00 24.3 9 Sur 19 Oeste 0 1009.9 -2.6 53
2017-10-29 13:00:00 23.9 10 Sudoeste 19 Sudoeste 0 1010.9 -1.9 56
2017-10-29 12:00:00 23.7 8 Sudoeste 18 Sudoeste 0 1012 -0.6 58
2017-10-29 11:00:00 22.7 5 Sudoeste 11 Sudoeste 0 1012.5 0.3 61
2017-10-29 10:00:00 20.4 5 Oeste 10 Oeste 0 1012.8 0.9 72
2017-10-29 09:00:00 17.3 4 Noroeste 13 Noroeste 0 1012.6 0.7 82
2017-10-29 08:00:00 15.3 4 Noroeste 10 Oeste 0 1012.2 0.3 89
2017-10-29 07:00:00 15.1 5 Oeste 9 Noroeste 0 1011.9 -0.3 88
2017-10-29 06:00:00 15.5 3 Noroeste 6 Noroeste 0 1011.9 -0.6 88
2017-10-29 05:00:00 16.1 3 Oeste 5 Oeste 0 1011.9 -0.9 88
2017-10-29 04:00:00 16.3 0 Calma 6 Noroeste 0 1012.2 -0.8 88
2017-10-29 03:00:00 16.4 3 Noroeste 4 Noroeste 0 1012.5 -1 88
2017-10-29 02:00:00 16.9 0 Calma 7 Noroeste 0 1012.8 -1.1 85
2017-10-29 01:00:00 18 3 Noroeste 5 Norte 0 1013.5 -0.8 84
2017-10-29 00:00:00 18.8 2 Nordeste 5 Nordeste 0 1013.9 -0.4 81
2017-10-28 23:00:00 18.8 0 Calma 9 Norte 0 1014 0 81
2017-10-28 22:00:00 19 6 Nordeste 11 Nordeste 0 1014.3 0.6 78
2017-10-28 21:00:00 20 6 Nordeste 12 Nordeste 0 1014.3 0.8 79
2017-10-28 20:00:00 20.2 6 Nordeste 11 Este 0 1014 0.6 78
2017-10-28 19:00:00 20.7 8 Nordeste 19 Este 0 1013.7 0.2 75
2017-10-28 18:00:00 21.2 10 Este 21 Nordeste 0 1013.5 -0.3 73
2017-10-28 17:00:00 22.4 12 Este 21 Este 0 1013.4 -1.1 70
2017-10-28 16:00:00 22.5 11 Sudeste 21 Este 0 1013.5 -1.5 70
2017-10-28 15:00:00 23.5 12 Este 24 Sudeste 0 1013.8 -1.4 66
2017-10-28 14:00:00 22.7 9 Este 21 Nordeste 0 1014.5 -1.1 68
2017-10-28 13:00:00 24 8 Este 22 Nordeste 0 1015 -0.4 63
2017-10-28 12:00:00 23.3 9 Este 18 Nordeste 0 1015.2 0.3 61
2017-10-28 11:00:00 21.6 4 Norte 10 Nordeste 0 1015.6 1.4 61
2017-10-28 10:00:00 16.8 3 Noroeste 7 Oeste 0 1015.4 1.4 74
2017-10-28 09:00:00 13.9 4 Noroeste 9 Oeste 0 1014.9 1.2 80
2017-10-28 08:00:00 13.7 4 Noroeste 9 Norte 0 1014.2 0.9 82
2017-10-28 07:00:00 14.2 3 Noroeste 8 Noroeste 0 1014 0.4 84
2017-10-28 06:00:00 14.7 3 Noroeste 8 Oeste 0 1013.7 0.1 79
2017-10-28 05:00:00 15.6 3 Noroeste 7 Norte 0 1013.3 -0.6 88
2017-10-28 04:00:00 16.9 4 Norte 10 Este 0 1013.6 0.4 87
2017-10-28 03:00:00 17.3 5 Nordeste 15 Este 0 1013.6 0.6 83
2017-10-28 02:00:00 18.1 7 Nordeste 21 Nordeste 0 1013.9 0.7 77
2017-10-28 01:00:00 15.2 6 Nordeste 10 Norte 0 1013.2 -0.1 71
2017-10-28 00:00:00 15.3 3 Oeste 6 Oeste 0 1013 -0.4 72
2017-10-27 23:00:00 16 3 Noroeste 5 Oeste 0 1013.2 -0.1 70
2017-10-27 22:00:00 17.1 3 Oeste 6 Oeste 0 1013.3 0.2 69
2017-10-27 21:00:00 18.2 4 Sudoeste 8 Sudoeste 0 1013.4 0.2 71
2017-10-27 20:00:00 20 3 Noroeste 4 Sudeste 0 1013.3 0 74
2017-10-27 19:00:00 22.1 4 Sudeste 11 Sudeste 0 1013.1 -0.7 66
2017-10-27 18:00:00 24.4 6 Sur 11 Sudeste 0 1013.2 -1.4 49
2017-10-27 17:00:00 26.7 6 Sudeste 14 Sur 0 1013.3 -2.2 39
2017-10-27 16:00:00 27.3 9 Sudeste 14 Sudeste 0 1013.8 -2.5 38
2017-10-27 15:00:00 27.4 8 Sudeste 13 Sudeste 0 1014.6 -2.3 35
2017-10-27 14:00:00 26.2 6 Sudeste 10 Sudeste 0 1015.5 -1.5 38
2017-10-27 13:00:00 25.7 4 Sur 7 Sur 0 1016.3 -0.5 43
2017-10-27 12:00:00 24 3 Sur 5 Este 0 1016.9 0.3 42
2017-10-27 11:00:00 21.1 3 Sudoeste 5 Sur 0 1017 0.6 49
2017-10-27 10:00:00 15.3 2 Noroeste 6 Noroeste 0 1016.8 0.4 70
2017-10-27 09:00:00 11.4 4 Noroeste 7 Oeste 0 1016.6 0.2 79
2017-10-27 08:00:00 11 4 Noroeste 6 Noroeste 0 1016.4 -0.1 89
2017-10-27 07:00:00 11.2 3 Noroeste 5 Noroeste 0 1016.4 -0.5 88
2017-10-27 06:00:00 11.6 4 Noroeste 5 Noroeste 0 1016.4 -0.9 88
2017-10-27 05:00:00 12.1 3 Noroeste 5 Noroeste 0 1016.5 -1.2 81
2017-10-27 04:00:00 12.8 4 Noroeste 7 Norte 0 1016.9 -1 83
2017-10-27 03:00:00 12.7 3 Noroeste 5 Oeste 0 1017.3 -0.8 79
2017-10-27 02:00:00 13.6 3 Noroeste 8 Noroeste 0 1017.7 -0.5 73
2017-10-27 01:00:00 14.1 3 Oeste 6 Oeste 0 1017.9 -0.1 76
2017-10-27 00:00:00 15.1 3 Noroeste 7 Noroeste 0 1018.1 0.4 77
2017-10-26 23:00:00 15.9 3 Oeste 7 Noroeste 0 1018.2 0.8 79
2017-10-26 22:00:00 16.7 3 Noroeste 5 Norte 0 1018 1 83
2017-10-26 21:00:00 18 4 Norte 5 Noroeste 0 1017.7 1.1 83
2017-10-26 20:00:00 19.4 0 Calma 5 Sudeste 0 1017.4 0.9 78
2017-10-26 19:00:00 21.4 4 Sudeste 10 Sudeste 0 1017 0.7 71
2017-10-26 18:00:00 23 6 Sudeste 13 Sudeste 0 1016.6 0.2 61
2017-10-26 17:00:00 24.5 9 Sudeste 17 Sudeste 0 1016.5 -0.5 58
2017-10-26 16:00:00 25.2 11 Sudeste 18 Sur 0 1016.3 -1.2 53
2017-10-26 15:00:00 25.8 9 Sudeste 16 Sudeste 0 1016.4 -1.2 50
2017-10-26 14:00:00 25.6 8 Sudeste 16 Sudeste 0 1017 -0.6 47
2017-10-26 13:00:00 25.3 6 Sur 14 Sur 0 1017.5 0.2 43
2017-10-26 12:00:00 24.4 6 Sur 10 Sur 0 1017.6 0.7 44
2017-10-26 11:00:00 21.6 0 Calma 4 Noroeste 0 1017.6 1.2 54
2017-10-26 10:00:00 16.4 3 Oeste 6 Oeste 0 1017.3 1 70
2017-10-26 09:00:00 12 3 Noroeste 6 Noroeste 0 1016.9 1 82
2017-10-26 08:00:00 11.9 4 Noroeste 6 Noroeste 0 1016.4 0.4 85
2017-10-26 07:00:00 12.1 3 Noroeste 7 Oeste 0 1016.3 0 83
2017-10-26 06:00:00 12.4 4 Noroeste 5 Noroeste 0 1015.9 -0.6 84
2017-10-26 05:00:00 12.9 4 Noroeste 7 Noroeste 0 1016 -0.4 83
2017-10-26 04:00:00 13.2 4 Oeste 5 Noroeste 0 1016.3 -0.4 86
2017-10-26 03:00:00 13.8 4 Noroeste 8 Noroeste 0 1016.5 -0.2 83
2017-10-26 02:00:00 14.7 4 Oeste 7 Oeste 0 1016.4 0.1 79
2017-10-26 01:00:00 15 3 Noroeste 7 Noroeste 0 1016.7 0.8 79
2017-10-26 00:00:00 15.3 3 Noroeste 5 Noroeste 0 1016.7 1 80
2017-10-25 23:00:00 16.3 3 Oeste 6 Oeste 0 1016.3 0.9 80
2017-10-25 22:00:00 17.6 4 Oeste 7 Oeste 0 1015.9 0.8 77
2017-10-25 21:00:00 19 3 Noroeste 5 Oeste 0 1015.7 1 82
2017-10-25 20:00:00 20.3 4 Sur 9 Sudeste 0 1015.4 1.1 80
2017-10-25 19:00:00 21.8 4 Sudeste 16 Sur 0 1015.1 0.8 71
2017-10-25 18:00:00 23.3 9 Sur 20 Sur 0 1014.7 0.1 55
2017-10-25 17:00:00 25 10 Sur 22 Sur 0 1014.3 -0.6 53
2017-10-25 16:00:00 25.5 13 Sur 22 Sur 0 1014.3 -1.1 55
2017-10-25 15:00:00 26.4 12 Sur 20 Sur 0 1014.6 -0.9 47
2017-10-25 14:00:00 27.1 10 Sur 18 Sur 0 1014.9 -0.3 40
2017-10-25 13:00:00 26.7 7 Sur 13 Sudeste 0 1015.4 0.5 36
2017-10-25 12:00:00 24.9 6 Sudoeste 12 Sudoeste 0 1015.5 1.1 36
2017-10-25 11:00:00 21.7 3 Oeste 8 Oeste 0 1015.2 1.2 49
2017-10-25 10:00:00 16.4 4 Oeste 8 Noroeste 0 1014.9 1.2 68
2017-10-25 09:00:00 13.1 4 Noroeste 10 Noroeste 0 1014.4 0.9 77
2017-10-25 08:00:00 12.2 3 Oeste 5 Oeste 0 1014 0.4 81
2017-10-25 07:00:00 12.7 3 Oeste 7 Oeste 0 1013.7 -0.2 79
2017-10-25 06:00:00 13.5 3 Noroeste 7 Oeste 0 1013.5 -0.8 76
2017-10-25 05:00:00 13.5 5 Noroeste 9 Noroeste 0 1013.6 -0.7 78
2017-10-25 04:00:00 13.3 4 Noroeste 8 Oeste 0 1013.9 -0.8 78
2017-10-25 03:00:00 14.3 4 Oeste 8 Noroeste 0 1014.3 -0.6 75
2017-10-25 02:00:00 14.8 3 Oeste 8 Noroeste 0 1014.3 -0.6 83
2017-10-25 01:00:00 15.5 3 Oeste 8 Oeste 0 1014.7 -0.1 85
2017-10-25 00:00:00 16 4 Oeste 8 Sudoeste 0 1014.9 0.2 84